sensor_id;sensor_type;location;lat;lon;timestamp;P1;durP1;ratioP1;P2;durP2;ratioP2
42420;SDS011;28063;48.140;11.588;2024-01-30T00:00:39;1.90;;;1.30;;
42420;SDS011;28063;48.140;11.588;2024-01-30T00:03:06;1.95;;;1.45;;
42420;SDS011;28063;48.140;11.588;2024-01-30T00:05:32;2.60;;;1.30;;
42420;SDS011;28063;48.140;11.588;2024-01-30T00:07:58;1.92;;;1.25;;
42420;SDS011;28063;48.140;11.588;2024-01-30T00:10:24;1.45;;;1.33;;
42420;SDS011;28063;48.140;11.588;2024-01-30T00:12:50;2.13;;;1.30;;
42420;SDS011;28063;48.140;11.588;2024-01-30T00:15:16;2.95;;;1.60;;
42420;SDS011;28063;48.140;11.588;2024-01-30T00:17:43;2.72;;;1.42;;
42420;SDS011;28063;48.140;11.588;2024-01-30T00:20:09;2.58;;;1.73;;
42420;SDS011;28063;48.140;11.588;2024-01-30T00:22:35;2.03;;;1.10;;
42420;SDS011;28063;48.140;11.588;2024-01-30T00:25:01;2.00;;;1.45;;
42420;SDS011;28063;48.140;11.588;2024-01-30T00:27:28;1.90;;;1.20;;
42420;SDS011;28063;48.140;11.588;2024-01-30T00:29:54;2.63;;;1.48;;
42420;SDS011;28063;48.140;11.588;2024-01-30T00:32:20;2.13;;;1.20;;
42420;SDS011;28063;48.140;11.588;2024-01-30T00:34:46;1.33;;;1.10;;
42420;SDS011;28063;48.140;11.588;2024-01-30T00:37:12;3.25;;;1.55;;
42420;SDS011;28063;48.140;11.588;2024-01-30T00:39:38;2.35;;;1.42;;
42420;SDS011;28063;48.140;11.588;2024-01-30T00:42:04;1.85;;;1.60;;
42420;SDS011;28063;48.140;11.588;2024-01-30T00:44:30;1.63;;;1.30;;
42420;SDS011;28063;48.140;11.588;2024-01-30T00:46:58;1.88;;;1.42;;
42420;SDS011;28063;48.140;11.588;2024-01-30T00:49:24;1.67;;;1.27;;
42420;SDS011;28063;48.140;11.588;2024-01-30T00:51:50;2.65;;;1.60;;
42420;SDS011;28063;48.140;11.588;2024-01-30T00:54:16;1.70;;;1.15;;
42420;SDS011;28063;48.140;11.588;2024-01-30T00:56:42;1.70;;;1.20;;
42420;SDS011;28063;48.140;11.588;2024-01-30T00:59:08;2.35;;;1.33;;
42420;SDS011;28063;48.140;11.588;2024-01-30T01:01:35;1.85;;;1.17;;
42420;SDS011;28063;48.140;11.588;2024-01-30T01:04:01;2.08;;;1.40;;
42420;SDS011;28063;48.140;11.588;2024-01-30T01:06:27;1.67;;;1.02;;
42420;SDS011;28063;48.140;11.588;2024-01-30T01:08:53;1.42;;;1.15;;
42420;SDS011;28063;48.140;11.588;2024-01-30T01:11:19;1.42;;;1.23;;
42420;SDS011;28063;48.140;11.588;2024-01-30T01:13:45;1.98;;;1.13;;
42420;SDS011;28063;48.140;11.588;2024-01-30T01:16:11;2.47;;;1.40;;
42420;SDS011;28063;48.140;11.588;2024-01-30T01:18:37;3.50;;;1.75;;
42420;SDS011;28063;48.140;11.588;2024-01-30T01:21:04;3.45;;;1.50;;
42420;SDS011;28063;48.140;11.588;2024-01-30T01:23:30;1.50;;;1.40;;
42420;SDS011;28063;48.140;11.588;2024-01-30T01:25:57;2.67;;;1.52;;
42420;SDS011;28063;48.140;11.588;2024-01-30T01:28:24;2.50;;;1.50;;
42420;SDS011;28063;48.140;11.588;2024-01-30T01:30:50;2.72;;;1.38;;
42420;SDS011;28063;48.140;11.588;2024-01-30T01:33:17;2.38;;;1.40;;
42420;SDS011;28063;48.140;11.588;2024-01-30T01:35:43;1.35;;;1.10;;
42420;SDS011;28063;48.140;11.588;2024-01-30T01:38:09;2.20;;;1.60;;
42420;SDS011;28063;48.140;11.588;2024-01-30T01:40:35;1.92;;;1.30;;
42420;SDS011;28063;48.140;11.588;2024-01-30T01:43:02;2.97;;;1.50;;
42420;SDS011;28063;48.140;11.588;2024-01-30T01:45:30;2.22;;;1.63;;
42420;SDS011;28063;48.140;11.588;2024-01-30T01:47:56;2.35;;;1.30;;
42420;SDS011;28063;48.140;11.588;2024-01-30T01:50:22;2.65;;;1.60;;
42420;SDS011;28063;48.140;11.588;2024-01-30T01:52:48;1.88;;;1.38;;
42420;SDS011;28063;48.140;11.588;2024-01-30T01:55:16;3.20;;;1.27;;
42420;SDS011;28063;48.140;11.588;2024-01-30T01:57:47;4.15;;;1.83;;
42420;SDS011;28063;48.140;11.588;2024-01-30T02:00:13;3.53;;;1.65;;
42420;SDS011;28063;48.140;11.588;2024-01-30T02:02:40;3.42;;;1.92;;
42420;SDS011;28063;48.140;11.588;2024-01-30T02:05:07;4.13;;;1.73;;
42420;SDS011;28063;48.140;11.588;2024-01-30T02:07:34;2.70;;;1.52;;
42420;SDS011;28063;48.140;11.588;2024-01-30T02:10:00;2.60;;;1.50;;
42420;SDS011;28063;48.140;11.588;2024-01-30T02:12:26;2.45;;;1.65;;
42420;SDS011;28063;48.140;11.588;2024-01-30T02:14:52;2.80;;;1.85;;
42420;SDS011;28063;48.140;11.588;2024-01-30T02:17:20;3.30;;;1.70;;
42420;SDS011;28063;48.140;11.588;2024-01-30T02:19:48;3.80;;;1.98;;
42420;SDS011;28063;48.140;11.588;2024-01-30T02:22:14;2.45;;;1.50;;
42420;SDS011;28063;48.140;11.588;2024-01-30T02:24:40;2.30;;;1.75;;
42420;SDS011;28063;48.140;11.588;2024-01-30T02:27:06;2.03;;;1.40;;
42420;SDS011;28063;48.140;11.588;2024-01-30T02:29:32;4.00;;;1.88;;
42420;SDS011;28063;48.140;11.588;2024-01-30T02:31:58;1.75;;;1.38;;
42420;SDS011;28063;48.140;11.588;2024-01-30T02:34:24;4.40;;;1.85;;
42420;SDS011;28063;48.140;11.588;2024-01-30T02:36:50;2.88;;;1.70;;
42420;SDS011;28063;48.140;11.588;2024-01-30T02:39:16;3.05;;;1.80;;
42420;SDS011;28063;48.140;11.588;2024-01-30T02:41:43;1.83;;;1.42;;
42420;SDS011;28063;48.140;11.588;2024-01-30T02:44:09;2.15;;;1.40;;
42420;SDS011;28063;48.140;11.588;2024-01-30T02:46:35;2.72;;;1.63;;
42420;SDS011;28063;48.140;11.588;2024-01-30T02:49:01;3.03;;;1.25;;
42420;SDS011;28063;48.140;11.588;2024-01-30T02:51:28;1.65;;;1.40;;
42420;SDS011;28063;48.140;11.588;2024-01-30T02:53:54;2.10;;;1.33;;
42420;SDS011;28063;48.140;11.588;2024-01-30T02:56:20;2.17;;;1.30;;
42420;SDS011;28063;48.140;11.588;2024-01-30T02:58:46;2.50;;;1.45;;
42420;SDS011;28063;48.140;11.588;2024-01-30T03:01:12;3.35;;;1.45;;
42420;SDS011;28063;48.140;11.588;2024-01-30T03:03:38;1.83;;;1.30;;
42420;SDS011;28063;48.140;11.588;2024-01-30T03:06:05;2.53;;;1.25;;
42420;SDS011;28063;48.140;11.588;2024-01-30T03:08:32;2.97;;;1.70;;
42420;SDS011;28063;48.140;11.588;2024-01-30T03:11:00;3.50;;;1.40;;
42420;SDS011;28063;48.140;11.588;2024-01-30T03:13:26;2.63;;;1.70;;
42420;SDS011;28063;48.140;11.588;2024-01-30T03:15:52;2.20;;;1.40;;
42420;SDS011;28063;48.140;11.588;2024-01-30T03:18:19;1.27;;;1.08;;
42420;SDS011;28063;48.140;11.588;2024-01-30T03:20:45;1.83;;;1.58;;
42420;SDS011;28063;48.140;11.588;2024-01-30T03:23:11;2.58;;;1.48;;
42420;SDS011;28063;48.140;11.588;2024-01-30T03:25:37;1.58;;;1.10;;
42420;SDS011;28063;48.140;11.588;2024-01-30T03:28:03;1.83;;;1.35;;
42420;SDS011;28063;48.140;11.588;2024-01-30T03:30:29;1.77;;;1.30;;
42420;SDS011;28063;48.140;11.588;2024-01-30T03:32:55;2.13;;;1.35;;
42420;SDS011;28063;48.140;11.588;2024-01-30T03:35:22;1.65;;;1.10;;
42420;SDS011;28063;48.140;11.588;2024-01-30T03:37:48;1.63;;;1.00;;
42420;SDS011;28063;48.140;11.588;2024-01-30T03:40:14;1.67;;;1.02;;
42420;SDS011;28063;48.140;11.588;2024-01-30T03:42:40;1.63;;;1.33;;
42420;SDS011;28063;48.140;11.588;2024-01-30T03:45:06;1.80;;;1.13;;
42420;SDS011;28063;48.140;11.588;2024-01-30T03:47:32;1.52;;;1.10;;
42420;SDS011;28063;48.140;11.588;2024-01-30T03:49:59;3.08;;;1.35;;
42420;SDS011;28063;48.140;11.588;2024-01-30T03:52:25;1.50;;;1.10;;
42420;SDS011;28063;48.140;11.588;2024-01-30T03:54:51;1.48;;;1.20;;
42420;SDS011;28063;48.140;11.588;2024-01-30T03:57:17;3.78;;;1.33;;
42420;SDS011;28063;48.140;11.588;2024-01-30T03:59:43;2.50;;;1.20;;
42420;SDS011;28063;48.140;11.588;2024-01-30T04:02:12;4.20;;;1.30;;
42420;SDS011;28063;48.140;11.588;2024-01-30T04:04:38;2.17;;;1.50;;
42420;SDS011;28063;48.140;11.588;2024-01-30T04:07:04;1.95;;;1.27;;
42420;SDS011;28063;48.140;11.588;2024-01-30T04:09:30;2.17;;;0.98;;
42420;SDS011;28063;48.140;11.588;2024-01-30T04:11:57;2.15;;;1.70;;
42420;SDS011;28063;48.140;11.588;2024-01-30T04:14:23;2.38;;;1.23;;
42420;SDS011;28063;48.140;11.588;2024-01-30T04:16:49;2.15;;;1.35;;
42420;SDS011;28063;48.140;11.588;2024-01-30T04:19:16;1.73;;;1.25;;
42420;SDS011;28063;48.140;11.588;2024-01-30T04:21:42;2.70;;;1.15;;
42420;SDS011;28063;48.140;11.588;2024-01-30T04:24:08;1.45;;;1.10;;
42420;SDS011;28063;48.140;11.588;2024-01-30T04:26:34;3.30;;;1.45;;
42420;SDS011;28063;48.140;11.588;2024-01-30T04:29:01;2.35;;;1.73;;
42420;SDS011;28063;48.140;11.588;2024-01-30T04:31:27;1.98;;;1.27;;
42420;SDS011;28063;48.140;11.588;2024-01-30T04:33:54;1.75;;;1.00;;
42420;SDS011;28063;48.140;11.588;2024-01-30T04:36:20;1.85;;;0.90;;
42420;SDS011;28063;48.140;11.588;2024-01-30T04:38:46;1.48;;;0.82;;
42420;SDS011;28063;48.140;11.588;2024-01-30T04:41:12;1.73;;;1.15;;
42420;SDS011;28063;48.140;11.588;2024-01-30T04:43:38;1.10;;;1.00;;
42420;SDS011;28063;48.140;11.588;2024-01-30T04:46:07;2.03;;;1.20;;
42420;SDS011;28063;48.140;11.588;2024-01-30T04:48:33;1.10;;;0.95;;
42420;SDS011;28063;48.140;11.588;2024-01-30T04:51:00;1.45;;;0.90;;
42420;SDS011;28063;48.140;11.588;2024-01-30T04:53:29;1.67;;;1.05;;
42420;SDS011;28063;48.140;11.588;2024-01-30T04:55:55;1.10;;;0.90;;
42420;SDS011;28063;48.140;11.588;2024-01-30T04:58:21;2.15;;;1.02;;
42420;SDS011;28063;48.140;11.588;2024-01-30T05:00:48;1.45;;;0.90;;
42420;SDS011;28063;48.140;11.588;2024-01-30T05:03:16;1.65;;;0.90;;
42420;SDS011;28063;48.140;11.588;2024-01-30T05:05:43;1.98;;;1.42;;
42420;SDS011;28063;48.140;11.588;2024-01-30T05:08:09;1.85;;;1.23;;
42420;SDS011;28063;48.140;11.588;2024-01-30T05:10:35;2.22;;;1.33;;
42420;SDS011;28063;48.140;11.588;2024-01-30T05:13:01;2.00;;;1.45;;
42420;SDS011;28063;48.140;11.588;2024-01-30T05:15:27;1.45;;;0.93;;
42420;SDS011;28063;48.140;11.588;2024-01-30T05:17:53;1.50;;;1.10;;
42420;SDS011;28063;48.140;11.588;2024-01-30T05:20:20;1.02;;;0.73;;
42420;SDS011;28063;48.140;11.588;2024-01-30T05:22:46;1.38;;;0.90;;
42420;SDS011;28063;48.140;11.588;2024-01-30T05:25:12;1.45;;;0.98;;
42420;SDS011;28063;48.140;11.588;2024-01-30T05:27:39;1.52;;;1.00;;
42420;SDS011;28063;48.140;11.588;2024-01-30T05:30:08;1.65;;;0.90;;
42420;SDS011;28063;48.140;11.588;2024-01-30T05:32:34;1.08;;;0.90;;
42420;SDS011;28063;48.140;11.588;2024-01-30T05:35:00;1.10;;;0.90;;
42420;SDS011;28063;48.140;11.588;2024-01-30T05:37:26;0.90;;;0.77;;
42420;SDS011;28063;48.140;11.588;2024-01-30T05:39:52;0.82;;;0.70;;
42420;SDS011;28063;48.140;11.588;2024-01-30T05:42:18;1.00;;;0.90;;
42420;SDS011;28063;48.140;11.588;2024-01-30T05:44:44;0.88;;;0.68;;
42420;SDS011;28063;48.140;11.588;2024-01-30T05:47:10;1.50;;;0.60;;
42420;SDS011;28063;48.140;11.588;2024-01-30T05:49:36;1.40;;;0.77;;
42420;SDS011;28063;48.140;11.588;2024-01-30T05:52:04;1.55;;;0.93;;
42420;SDS011;28063;48.140;11.588;2024-01-30T05:54:30;0.73;;;0.65;;
42420;SDS011;28063;48.140;11.588;2024-01-30T05:56:56;0.63;;;0.52;;
42420;SDS011;28063;48.140;11.588;2024-01-30T05:59:22;1.65;;;0.80;;
42420;SDS011;28063;48.140;11.588;2024-01-30T06:01:48;0.60;;;0.60;;
42420;SDS011;28063;48.140;11.588;2024-01-30T06:04:14;1.33;;;0.88;;
42420;SDS011;28063;48.140;11.588;2024-01-30T06:06:41;1.23;;;0.80;;
42420;SDS011;28063;48.140;11.588;2024-01-30T06:09:07;0.63;;;0.63;;
42420;SDS011;28063;48.140;11.588;2024-01-30T06:11:34;0.40;;;0.40;;
42420;SDS011;28063;48.140;11.588;2024-01-30T06:14:00;0.70;;;0.60;;
42420;SDS011;28063;48.140;11.588;2024-01-30T06:16:26;0.95;;;0.70;;
42420;SDS011;28063;48.140;11.588;2024-01-30T06:18:54;1.00;;;0.70;;
42420;SDS011;28063;48.140;11.588;2024-01-30T06:21:21;1.20;;;0.75;;
42420;SDS011;28063;48.140;11.588;2024-01-30T06:23:47;1.25;;;0.90;;
42420;SDS011;28063;48.140;11.588;2024-01-30T06:26:13;1.27;;;0.60;;
42420;SDS011;28063;48.140;11.588;2024-01-30T06:28:39;0.73;;;0.73;;
42420;SDS011;28063;48.140;11.588;2024-01-30T06:31:05;1.15;;;0.80;;
42420;SDS011;28063;48.140;11.588;2024-01-30T06:33:31;0.90;;;0.70;;
42420;SDS011;28063;48.140;11.588;2024-01-30T06:35:57;1.65;;;1.00;;
42420;SDS011;28063;48.140;11.588;2024-01-30T06:38:24;1.40;;;0.77;;
42420;SDS011;28063;48.140;11.588;2024-01-30T06:40:50;0.80;;;0.60;;
42420;SDS011;28063;48.140;11.588;2024-01-30T06:43:16;0.90;;;0.65;;
42420;SDS011;28063;48.140;11.588;2024-01-30T06:45:43;1.05;;;0.95;;
42420;SDS011;28063;48.140;11.588;2024-01-30T06:48:09;1.70;;;0.85;;
42420;SDS011;28063;48.140;11.588;2024-01-30T06:50:35;0.88;;;0.70;;
42420;SDS011;28063;48.140;11.588;2024-01-30T06:53:01;0.95;;;0.75;;
42420;SDS011;28063;48.140;11.588;2024-01-30T06:55:27;1.27;;;0.90;;
42420;SDS011;28063;48.140;11.588;2024-01-30T06:57:53;1.23;;;0.70;;
42420;SDS011;28063;48.140;11.588;2024-01-30T07:00:19;0.90;;;0.68;;
42420;SDS011;28063;48.140;11.588;2024-01-30T07:02:46;1.13;;;0.50;;
42420;SDS011;28063;48.140;11.588;2024-01-30T07:05:12;1.40;;;0.80;;
42420;SDS011;28063;48.140;11.588;2024-01-30T07:07:39;1.17;;;0.73;;
42420;SDS011;28063;48.140;11.588;2024-01-30T07:10:05;1.52;;;1.00;;
42420;SDS011;28063;48.140;11.588;2024-01-30T07:12:31;2.30;;;1.00;;
42420;SDS011;28063;48.140;11.588;2024-01-30T07:14:58;1.10;;;1.00;;
42420;SDS011;28063;48.140;11.588;2024-01-30T07:17:24;1.02;;;0.80;;
42420;SDS011;28063;48.140;11.588;2024-01-30T07:19:50;1.20;;;0.70;;
42420;SDS011;28063;48.140;11.588;2024-01-30T07:22:16;1.80;;;1.02;;
42420;SDS011;28063;48.140;11.588;2024-01-30T07:24:43;1.15;;;0.95;;
42420;SDS011;28063;48.140;11.588;2024-01-30T07:27:12;1.48;;;1.08;;
42420;SDS011;28063;48.140;11.588;2024-01-30T07:29:38;1.38;;;1.05;;
42420;SDS011;28063;48.140;11.588;2024-01-30T07:32:04;1.38;;;0.90;;
42420;SDS011;28063;48.140;11.588;2024-01-30T07:34:30;0.70;;;0.70;;
42420;SDS011;28063;48.140;11.588;2024-01-30T07:36:56;1.65;;;0.80;;
42420;SDS011;28063;48.140;11.588;2024-01-30T07:39:22;0.70;;;0.70;;
42420;SDS011;28063;48.140;11.588;2024-01-30T07:41:49;1.30;;;0.90;;
42420;SDS011;28063;48.140;11.588;2024-01-30T07:44:15;1.15;;;1.05;;
42420;SDS011;28063;48.140;11.588;2024-01-30T07:46:41;3.05;;;0.90;;
42420;SDS011;28063;48.140;11.588;2024-01-30T07:49:07;1.27;;;0.73;;
42420;SDS011;28063;48.140;11.588;2024-01-30T07:51:33;2.08;;;1.25;;
42420;SDS011;28063;48.140;11.588;2024-01-30T07:53:59;1.38;;;0.80;;
42420;SDS011;28063;48.140;11.588;2024-01-30T07:56:25;1.30;;;0.80;;
42420;SDS011;28063;48.140;11.588;2024-01-30T07:58:51;1.33;;;0.98;;
42420;SDS011;28063;48.140;11.588;2024-01-30T08:01:18;1.10;;;1.00;;
42420;SDS011;28063;48.140;11.588;2024-01-30T08:03:44;1.05;;;0.90;;
42420;SDS011;28063;48.140;11.588;2024-01-30T08:06:10;0.95;;;0.70;;
42420;SDS011;28063;48.140;11.588;2024-01-30T08:08:36;0.75;;;0.73;;
42420;SDS011;28063;48.140;11.588;2024-01-30T08:11:03;2.20;;;0.95;;
42420;SDS011;28063;48.140;11.588;2024-01-30T08:13:29;0.98;;;0.73;;
42420;SDS011;28063;48.140;11.588;2024-01-30T08:15:55;0.80;;;0.60;;
42420;SDS011;28063;48.140;11.588;2024-01-30T08:18:21;0.68;;;0.68;;
42420;SDS011;28063;48.140;11.588;2024-01-30T08:20:47;0.73;;;0.60;;
42420;SDS011;28063;48.140;11.588;2024-01-30T08:23:14;0.55;;;0.55;;
42420;SDS011;28063;48.140;11.588;2024-01-30T08:25:40;1.00;;;0.90;;
42420;SDS011;28063;48.140;11.588;2024-01-30T08:28:06;0.82;;;0.60;;
42420;SDS011;28063;48.140;11.588;2024-01-30T08:30:33;1.33;;;0.73;;
42420;SDS011;28063;48.140;11.588;2024-01-30T08:32:59;0.93;;;0.85;;
42420;SDS011;28063;48.140;11.588;2024-01-30T08:35:25;1.02;;;0.73;;
42420;SDS011;28063;48.140;11.588;2024-01-30T08:37:51;1.00;;;0.75;;
42420;SDS011;28063;48.140;11.588;2024-01-30T08:40:17;0.60;;;0.60;;
42420;SDS011;28063;48.140;11.588;2024-01-30T08:42:43;1.05;;;0.82;;
42420;SDS011;28063;48.140;11.588;2024-01-30T08:45:09;0.50;;;0.50;;
42420;SDS011;28063;48.140;11.588;2024-01-30T08:47:35;0.63;;;0.63;;
42420;SDS011;28063;48.140;11.588;2024-01-30T08:50:02;0.65;;;0.55;;
42420;SDS011;28063;48.140;11.588;2024-01-30T08:52:28;0.77;;;0.57;;
42420;SDS011;28063;48.140;11.588;2024-01-30T08:54:54;0.40;;;0.40;;
42420;SDS011;28063;48.140;11.588;2024-01-30T08:57:20;1.23;;;0.60;;
42420;SDS011;28063;48.140;11.588;2024-01-30T08:59:46;0.65;;;0.50;;
42420;SDS011;28063;48.140;11.588;2024-01-30T09:02:13;1.05;;;0.88;;
42420;SDS011;28063;48.140;11.588;2024-01-30T09:04:41;0.63;;;0.57;;
42420;SDS011;28063;48.140;11.588;2024-01-30T09:07:08;0.85;;;0.60;;
42420;SDS011;28063;48.140;11.588;2024-01-30T09:09:35;0.68;;;0.50;;
42420;SDS011;28063;48.140;11.588;2024-01-30T09:12:01;0.73;;;0.70;;
42420;SDS011;28063;48.140;11.588;2024-01-30T09:14:31;0.75;;;0.50;;
42420;SDS011;28063;48.140;11.588;2024-01-30T09:16:58;0.50;;;0.50;;
42420;SDS011;28063;48.140;11.588;2024-01-30T09:19:24;0.32;;;0.30;;
42420;SDS011;28063;48.140;11.588;2024-01-30T09:21:50;0.68;;;0.60;;
42420;SDS011;28063;48.140;11.588;2024-01-30T09:24:16;0.70;;;0.60;;
42420;SDS011;28063;48.140;11.588;2024-01-30T09:26:42;0.65;;;0.60;;
42420;SDS011;28063;48.140;11.588;2024-01-30T09:29:08;0.40;;;0.38;;
42420;SDS011;28063;48.140;11.588;2024-01-30T09:31:34;0.70;;;0.70;;
42420;SDS011;28063;48.140;11.588;2024-01-30T09:34:00;1.25;;;0.50;;
42420;SDS011;28063;48.140;11.588;2024-01-30T09:36:26;0.70;;;0.57;;
42420;SDS011;28063;48.140;11.588;2024-01-30T09:38:52;0.40;;;0.40;;
42420;SDS011;28063;48.140;11.588;2024-01-30T09:41:19;0.43;;;0.40;;
42420;SDS011;28063;48.140;11.588;2024-01-30T09:43:47;0.50;;;0.50;;
42420;SDS011;28063;48.140;11.588;2024-01-30T09:46:14;0.55;;;0.55;;
42420;SDS011;28063;48.140;11.588;2024-01-30T09:48:42;0.70;;;0.60;;
42420;SDS011;28063;48.140;11.588;2024-01-30T09:51:09;0.40;;;0.40;;
42420;SDS011;28063;48.140;11.588;2024-01-30T09:53:36;0.57;;;0.57;;
42420;SDS011;28063;48.140;11.588;2024-01-30T09:56:02;0.50;;;0.50;;
42420;SDS011;28063;48.140;11.588;2024-01-30T09:58:28;0.50;;;0.40;;
42420;SDS011;28063;48.140;11.588;2024-01-30T10:00:54;0.43;;;0.43;;
42420;SDS011;28063;48.140;11.588;2024-01-30T10:03:20;1.25;;;0.47;;
42420;SDS011;28063;48.140;11.588;2024-01-30T10:05:52;0.38;;;0.38;;
42420;SDS011;28063;48.140;11.588;2024-01-30T10:08:18;0.40;;;0.40;;
42420;SDS011;28063;48.140;11.588;2024-01-30T10:10:45;0.35;;;0.35;;
42420;SDS011;28063;48.140;11.588;2024-01-30T10:13:11;0.68;;;0.57;;
42420;SDS011;28063;48.140;11.588;2024-01-30T10:15:37;0.45;;;0.45;;
42420;SDS011;28063;48.140;11.588;2024-01-30T10:18:06;0.90;;;0.70;;
42420;SDS011;28063;48.140;11.588;2024-01-30T10:20:32;1.70;;;1.13;;
42420;SDS011;28063;48.140;11.588;2024-01-30T10:22:58;3.20;;;0.90;;
42420;SDS011;28063;48.140;11.588;2024-01-30T10:25:25;2.45;;;1.30;;
42420;SDS011;28063;48.140;11.588;2024-01-30T10:27:54;3.60;;;1.02;;
42420;SDS011;28063;48.140;11.588;2024-01-30T10:30:21;1.98;;;1.30;;
42420;SDS011;28063;48.140;11.588;2024-01-30T10:32:47;2.65;;;1.50;;
42420;SDS011;28063;48.140;11.588;2024-01-30T10:35:13;4.18;;;1.80;;
42420;SDS011;28063;48.140;11.588;2024-01-30T10:37:40;1.33;;;1.23;;
42420;SDS011;28063;48.140;11.588;2024-01-30T10:40:06;1.52;;;1.23;;
42420;SDS011;28063;48.140;11.588;2024-01-30T10:42:33;2.65;;;1.38;;
42420;SDS011;28063;48.140;11.588;2024-01-30T10:45:06;2.17;;;1.50;;
42420;SDS011;28063;48.140;11.588;2024-01-30T10:47:33;1.77;;;1.25;;
42420;SDS011;28063;48.140;11.588;2024-01-30T10:50:01;1.83;;;1.52;;
42420;SDS011;28063;48.140;11.588;2024-01-30T10:52:28;1.65;;;1.20;;
42420;SDS011;28063;48.140;11.588;2024-01-30T10:54:55;2.28;;;1.30;;
42420;SDS011;28063;48.140;11.588;2024-01-30T10:57:25;1.15;;;1.08;;
42420;SDS011;28063;48.140;11.588;2024-01-30T10:59:52;3.33;;;1.25;;
42420;SDS011;28063;48.140;11.588;2024-01-30T11:02:19;1.20;;;1.10;;
42420;SDS011;28063;48.140;11.588;2024-01-30T11:04:45;2.40;;;1.60;;
42420;SDS011;28063;48.140;11.588;2024-01-30T11:07:23;2.72;;;1.45;;
42420;SDS011;28063;48.140;11.588;2024-01-30T11:09:51;1.85;;;1.45;;
42420;SDS011;28063;48.140;11.588;2024-01-30T11:12:24;2.97;;;1.33;;
42420;SDS011;28063;48.140;11.588;2024-01-30T11:15:03;2.28;;;1.30;;
42420;SDS011;28063;48.140;11.588;2024-01-30T11:17:43;3.05;;;1.52;;
42420;SDS011;28063;48.140;11.588;2024-01-30T11:20:12;1.65;;;1.45;;
42420;SDS011;28063;48.140;11.588;2024-01-30T11:22:40;2.05;;;1.42;;
42420;SDS011;28063;48.140;11.588;2024-01-30T11:25:06;2.65;;;1.70;;
42420;SDS011;28063;48.140;11.588;2024-01-30T11:27:36;3.33;;;1.92;;
42420;SDS011;28063;48.140;11.588;2024-01-30T11:30:03;2.28;;;1.65;;
42420;SDS011;28063;48.140;11.588;2024-01-30T11:32:30;2.60;;;1.40;;
42420;SDS011;28063;48.140;11.588;2024-01-30T11:34:56;1.70;;;1.30;;
42420;SDS011;28063;48.140;11.588;2024-01-30T11:37:22;2.00;;;1.35;;
42420;SDS011;28063;48.140;11.588;2024-01-30T11:39:51;2.33;;;1.70;;
42420;SDS011;28063;48.140;11.588;2024-01-30T11:42:19;0.90;;;0.75;;
42420;SDS011;28063;48.140;11.588;2024-01-30T11:44:48;2.38;;;1.60;;
42420;SDS011;28063;48.140;11.588;2024-01-30T11:47:14;1.77;;;0.93;;
42420;SDS011;28063;48.140;11.588;2024-01-30T11:49:40;2.78;;;1.45;;
42420;SDS011;28063;48.140;11.588;2024-01-30T11:52:06;3.47;;;1.38;;
42420;SDS011;28063;48.140;11.588;2024-01-30T11:54:33;3.10;;;1.50;;
42420;SDS011;28063;48.140;11.588;2024-01-30T11:56:59;2.63;;;1.45;;
42420;SDS011;28063;48.140;11.588;2024-01-30T11:59:25;1.88;;;1.30;;
42420;SDS011;28063;48.140;11.588;2024-01-30T12:01:51;1.42;;;1.20;;
42420;SDS011;28063;48.140;11.588;2024-01-30T12:04:17;1.42;;;1.30;;
42420;SDS011;28063;48.140;11.588;2024-01-30T12:06:44;2.65;;;1.33;;
42420;SDS011;28063;48.140;11.588;2024-01-30T12:09:10;1.42;;;1.10;;
42420;SDS011;28063;48.140;11.588;2024-01-30T12:11:44;1.95;;;1.23;;
42420;SDS011;28063;48.140;11.588;2024-01-30T12:14:11;0.95;;;0.90;;
42420;SDS011;28063;48.140;11.588;2024-01-30T12:16:37;1.30;;;0.77;;
42420;SDS011;28063;48.140;11.588;2024-01-30T12:19:03;1.08;;;1.00;;
42420;SDS011;28063;48.140;11.588;2024-01-30T12:21:29;1.23;;;1.00;;
42420;SDS011;28063;48.140;11.588;2024-01-30T12:23:59;1.50;;;0.95;;
42420;SDS011;28063;48.140;11.588;2024-01-30T12:26:25;1.77;;;1.00;;
42420;SDS011;28063;48.140;11.588;2024-01-30T12:28:54;0.93;;;0.82;;
42420;SDS011;28063;48.140;11.588;2024-01-30T12:31:31;1.02;;;0.98;;
42420;SDS011;28063;48.140;11.588;2024-01-30T12:33:59;0.80;;;0.77;;
42420;SDS011;28063;48.140;11.588;2024-01-30T12:36:25;0.85;;;0.85;;
42420;SDS011;28063;48.140;11.588;2024-01-30T12:38:51;0.80;;;0.77;;
42420;SDS011;28063;48.140;11.588;2024-01-30T12:41:17;0.77;;;0.52;;
42420;SDS011;28063;48.140;11.588;2024-01-30T12:43:45;1.35;;;0.90;;
42420;SDS011;28063;48.140;11.588;2024-01-30T12:46:12;1.25;;;0.93;;
42420;SDS011;28063;48.140;11.588;2024-01-30T12:48:38;1.02;;;0.88;;
42420;SDS011;28063;48.140;11.588;2024-01-30T12:51:04;1.08;;;0.98;;
42420;SDS011;28063;48.140;11.588;2024-01-30T12:53:31;1.15;;;0.85;;
42420;SDS011;28063;48.140;11.588;2024-01-30T12:55:57;1.15;;;1.05;;
42420;SDS011;28063;48.140;11.588;2024-01-30T12:58:23;1.30;;;1.00;;
42420;SDS011;28063;48.140;11.588;2024-01-30T13:00:49;1.40;;;0.93;;
42420;SDS011;28063;48.140;11.588;2024-01-30T13:03:16;1.65;;;1.25;;
42420;SDS011;28063;48.140;11.588;2024-01-30T13:05:42;1.13;;;1.02;;
42420;SDS011;28063;48.140;11.588;2024-01-30T13:08:08;2.00;;;0.90;;
42420;SDS011;28063;48.140;11.588;2024-01-30T13:10:34;1.02;;;1.02;;
42420;SDS011;28063;48.140;11.588;2024-01-30T13:13:00;0.95;;;0.73;;
42420;SDS011;28063;48.140;11.588;2024-01-30T13:15:27;1.05;;;1.00;;
42420;SDS011;28063;48.140;11.588;2024-01-30T13:17:53;0.98;;;0.80;;
42420;SDS011;28063;48.140;11.588;2024-01-30T13:20:19;0.55;;;0.55;;
42420;SDS011;28063;48.140;11.588;2024-01-30T13:22:49;2.63;;;1.00;;
42420;SDS011;28063;48.140;11.588;2024-01-30T13:25:15;0.80;;;0.80;;
42420;SDS011;28063;48.140;11.588;2024-01-30T13:27:41;1.98;;;1.20;;
42420;SDS011;28063;48.140;11.588;2024-01-30T13:30:08;1.02;;;0.90;;
42420;SDS011;28063;48.140;11.588;2024-01-30T13:32:34;0.82;;;0.63;;
42420;SDS011;28063;48.140;11.588;2024-01-30T13:35:01;0.63;;;0.63;;
42420;SDS011;28063;48.140;11.588;2024-01-30T13:37:27;1.65;;;0.98;;
42420;SDS011;28063;48.140;11.588;2024-01-30T13:39:53;1.10;;;1.00;;
42420;SDS011;28063;48.140;11.588;2024-01-30T13:42:19;0.75;;;0.75;;
42420;SDS011;28063;48.140;11.588;2024-01-30T13:44:45;2.30;;;1.30;;
42420;SDS011;28063;48.140;11.588;2024-01-30T13:47:11;1.52;;;1.30;;
42420;SDS011;28063;48.140;11.588;2024-01-30T13:49:37;1.92;;;1.10;;
42420;SDS011;28063;48.140;11.588;2024-01-30T13:52:04;2.97;;;1.25;;
42420;SDS011;28063;48.140;11.588;2024-01-30T13:54:33;2.22;;;1.20;;
42420;SDS011;28063;48.140;11.588;2024-01-30T13:56:59;2.10;;;1.40;;
42420;SDS011;28063;48.140;11.588;2024-01-30T13:59:25;2.17;;;1.10;;
42420;SDS011;28063;48.140;11.588;2024-01-30T14:01:51;1.85;;;0.90;;
42420;SDS011;28063;48.140;11.588;2024-01-30T14:04:17;2.35;;;1.10;;
42420;SDS011;28063;48.140;11.588;2024-01-30T14:06:44;1.27;;;0.90;;
42420;SDS011;28063;48.140;11.588;2024-01-30T14:09:10;2.15;;;1.38;;
42420;SDS011;28063;48.140;11.588;2024-01-30T14:11:36;3.83;;;1.75;;
42420;SDS011;28063;48.140;11.588;2024-01-30T14:14:02;3.83;;;1.05;;
42420;SDS011;28063;48.140;11.588;2024-01-30T14:16:28;0.85;;;0.85;;
42420;SDS011;28063;48.140;11.588;2024-01-30T14:18:54;1.80;;;1.05;;
42420;SDS011;28063;48.140;11.588;2024-01-30T14:21:20;10.77;;;1.85;;
42420;SDS011;28063;48.140;11.588;2024-01-30T14:23:46;4.55;;;1.73;;
42420;SDS011;28063;48.140;11.588;2024-01-30T14:26:12;1.98;;;1.40;;
42420;SDS011;28063;48.140;11.588;2024-01-30T14:28:39;3.65;;;1.30;;